createdAt,value
2019-03-09T00:01:41.172Z,15.70
2019-03-09T00:04:09.211Z,13.50
2019-03-09T00:06:37.511Z,16.90
2019-03-09T00:09:06.060Z,15.43
2019-03-09T00:11:34.189Z,10.00
2019-03-09T00:14:04.604Z,12.63
2019-03-09T00:16:32.936Z,13.87
2019-03-09T00:19:00.988Z,14.00
2019-03-09T00:21:29.098Z,19.63
2019-03-09T00:24:20.122Z,11.80
2019-03-09T00:27:29.019Z,12.83
2019-03-09T00:30:04.292Z,14.27
2019-03-09T00:32:32.668Z,14.43
2019-03-09T00:35:00.751Z,14.20
2019-03-09T00:37:28.795Z,12.70
2019-03-09T00:39:56.905Z,11.73
2019-03-09T00:42:26.072Z,13.57
2019-03-09T00:44:54.321Z,17.20
2019-03-09T00:47:22.552Z,14.23
2019-03-09T00:49:50.626Z,16.73
2019-03-09T00:52:18.673Z,16.93
2019-03-09T00:54:46.786Z,15.70
2019-03-09T00:57:14.940Z,14.77
2019-03-09T00:59:42.975Z,14.63
2019-03-09T01:02:12.352Z,16.20
2019-03-09T01:04:40.395Z,15.70
2019-03-09T01:07:08.439Z,14.17
2019-03-09T01:09:37.797Z,15.53
2019-03-09T01:12:05.848Z,13.90
2019-03-09T01:14:34.060Z,12.70
2019-03-09T01:17:02.579Z,13.67
2019-03-09T01:19:30.633Z,14.87
2019-03-09T01:21:58.699Z,13.63
2019-03-09T01:24:26.973Z,14.80
2019-03-09T01:26:55.049Z,13.53
2019-03-09T01:29:23.495Z,13.53
2019-03-09T01:31:51.823Z,10.57
2019-03-09T01:34:21.339Z,9.63
2019-03-09T01:36:49.401Z,11.60
2019-03-09T01:39:17.684Z,11.87
2019-03-09T01:41:45.720Z,10.87
2019-03-09T01:44:15.225Z,11.10
2019-03-09T01:46:43.323Z,7.93
2019-03-09T01:49:11.386Z,9.87
2019-03-09T01:51:39.441Z,10.63
2019-03-09T01:54:08.747Z,7.60
2019-03-09T01:56:36.795Z,9.83
2019-03-09T01:59:06.032Z,8.37
2019-03-09T02:01:36.073Z,9.93
2019-03-09T02:04:05.221Z,9.70
2019-03-09T02:06:33.301Z,10.23
2019-03-09T02:09:01.439Z,10.73
2019-03-09T02:11:29.468Z,7.87
2019-03-09T02:13:57.811Z,9.03
2019-03-09T02:16:26.000Z,10.97
2019-03-09T02:18:55.926Z,10.80
2019-03-09T02:21:24.003Z,9.93
2019-03-09T02:23:52.101Z,11.57
2019-03-09T02:26:20.149Z,10.73
2019-03-09T02:28:48.209Z,11.40
2019-03-09T02:31:16.611Z,8.80
2019-03-09T02:33:44.665Z,9.03
2019-03-09T02:36:12.705Z,9.77
2019-03-09T02:38:48.593Z,11.60
2019-03-09T02:41:16.647Z,9.63
2019-03-09T02:43:44.686Z,10.27
2019-03-09T02:46:13.985Z,12.50
2019-03-09T02:48:42.060Z,11.57
2019-03-09T02:51:10.146Z,10.63
2019-03-09T02:53:38.447Z,9.90
2019-03-09T02:56:06.487Z,9.13
2019-03-09T02:58:36.336Z,8.13
2019-03-09T03:01:19.644Z,7.53
2019-03-09T03:03:47.784Z,8.40
2019-03-09T03:06:15.836Z,8.13
2019-03-09T03:08:45.887Z,8.57
2019-03-09T03:11:13.969Z,8.80
2019-03-09T03:13:43.807Z,8.93
2019-03-09T03:16:12.058Z,9.33
2019-03-09T03:18:40.117Z,8.57
2019-03-09T03:21:09.500Z,10.40
2019-03-09T03:23:37.915Z,10.33
2019-03-09T03:26:05.965Z,9.67
2019-03-09T03:28:34.083Z,9.70
2019-03-09T03:31:04.136Z,9.13
2019-03-09T03:33:32.364Z,10.10
2019-03-09T03:36:00.476Z,10.03
2019-03-09T03:38:30.581Z,10.20
2019-03-09T03:40:59.757Z,10.67
2019-03-09T03:43:27.820Z,10.50
2019-03-09T03:45:56.132Z,10.57
2019-03-09T03:48:24.172Z,11.33
2019-03-09T03:50:52.256Z,11.40
2019-03-09T03:53:20.511Z,11.50
2019-03-09T03:55:48.566Z,11.00
2019-03-09T03:58:16.618Z,11.43
2019-03-09T04:00:46.189Z,11.80
2019-03-09T04:03:14.317Z,11.20
2019-03-09T04:05:44.048Z,11.70
2019-03-09T04:08:12.401Z,11.17
2019-03-09T04:10:40.447Z,11.53
2019-03-09T04:13:08.710Z,10.73
2019-03-09T04:15:36.821Z,11.30
2019-03-09T04:18:04.916Z,11.53
2019-03-09T04:20:33.111Z,11.07
2019-03-09T04:23:01.791Z,11.23
2019-03-09T04:25:29.817Z,10.33
2019-03-09T04:27:57.868Z,10.60
2019-03-09T04:30:27.963Z,11.03
2019-03-09T04:32:56.051Z,10.13
2019-03-09T04:35:25.402Z,10.77
2019-03-09T04:37:53.855Z,8.73
2019-03-09T04:40:21.915Z,10.17
2019-03-09T04:42:51.057Z,8.60
2019-03-09T04:45:20.271Z,9.00
2019-03-09T04:47:49.812Z,9.37
2019-03-09T04:50:17.845Z,9.27
2019-03-09T04:52:45.937Z,8.70
2019-03-09T04:55:13.980Z,8.93
2019-03-09T04:57:42.115Z,8.40
2019-03-09T05:00:10.970Z,9.83
2019-03-09T05:02:39.039Z,8.83
2019-03-09T05:05:07.949Z,8.27
2019-03-09T05:07:37.292Z,9.87
2019-03-09T05:10:25.357Z,8.83
2019-03-09T05:12:57.707Z,8.20
2019-03-09T05:15:25.912Z,9.07
2019-03-09T05:17:54.048Z,8.77
2019-03-09T05:20:22.431Z,9.13
2019-03-09T05:22:50.474Z,8.93
2019-03-09T05:25:19.032Z,9.30
2019-03-09T05:27:47.168Z,8.03
2019-03-09T05:30:16.524Z,7.97
2019-03-09T05:32:45.728Z,7.33
2019-03-09T05:35:15.081Z,7.43
2019-03-09T05:37:43.533Z,7.33
2019-03-09T05:40:11.664Z,6.40
2019-03-09T05:42:40.124Z,8.60
2019-03-09T05:45:08.359Z,8.00
2019-03-09T05:47:36.409Z,10.20
2019-03-09T05:50:04.802Z,9.00
2019-03-09T05:52:33.418Z,8.53
2019-03-09T05:55:09.993Z,8.20
2019-03-09T05:57:38.094Z,10.77
2019-03-09T06:00:06.497Z,8.43
2019-03-09T06:02:34.558Z,6.67
2019-03-09T06:05:04.272Z,9.07
2019-03-09T06:07:32.320Z,7.93
2019-03-09T06:10:00.398Z,11.03
2019-03-09T06:12:28.551Z,5.97
2019-03-09T06:14:56.576Z,9.57
2019-03-09T06:17:24.655Z,13.80
2019-03-09T06:19:52.938Z,9.60
2019-03-09T06:22:20.999Z,8.53
2019-03-09T06:24:49.020Z,11.30
2019-03-09T06:27:17.688Z,12.33
2019-03-09T06:29:47.535Z,8.50
2019-03-09T06:32:33.474Z,11.80
2019-03-09T06:35:01.578Z,18.73
2019-03-09T06:37:29.668Z,9.17
2019-03-09T06:39:57.778Z,13.70
2019-03-09T06:42:27.772Z,14.33
2019-03-09T06:44:55.814Z,12.37
2019-03-09T06:47:25.878Z,17.63
2019-03-09T06:49:53.952Z,10.63
2019-03-09T06:52:22.054Z,9.90
2019-03-09T06:54:50.147Z,13.53
2019-03-09T06:57:18.203Z,16.57
2019-03-09T06:59:46.248Z,15.00
2019-03-09T07:02:14.398Z,15.93
2019-03-09T07:04:42.448Z,17.57
2019-03-09T07:07:10.541Z,19.57
2019-03-09T07:09:38.795Z,20.23
2019-03-09T07:12:06.867Z,14.33
2019-03-09T07:14:53.086Z,21.43
2019-03-09T07:17:21.128Z,15.77
2019-03-09T07:19:50.975Z,18.17
2019-03-09T07:22:19.389Z,18.23
2019-03-09T07:24:48.506Z,16.60
2019-03-09T07:27:16.553Z,17.20
2019-03-09T07:29:44.971Z,18.57
2019-03-09T07:32:14.844Z,18.40
2019-03-09T07:34:44.100Z,21.60
2019-03-09T07:37:12.275Z,18.50
2019-03-09T07:39:40.329Z,19.50
2019-03-09T07:42:08.400Z,29.40
2019-03-09T07:44:36.545Z,24.30
2019-03-09T07:47:06.350Z,23.27
2019-03-09T07:49:34.433Z,22.53
2019-03-09T07:52:04.147Z,26.63
2019-03-09T07:54:32.195Z,27.57
2019-03-09T07:57:00.230Z,29.00
2019-03-09T07:59:28.427Z,26.27
2019-03-09T08:01:57.564Z,27.33
2019-03-09T08:04:25.606Z,28.00
2019-03-09T08:06:54.195Z,29.53
2019-03-09T08:09:22.331Z,31.13
2019-03-09T08:11:50.385Z,25.57
2019-03-09T08:14:18.543Z,26.40
2019-03-09T08:16:48.833Z,25.40
2019-03-09T08:19:18.512Z,28.37
2019-03-09T08:21:46.788Z,27.80
2019-03-09T08:24:14.843Z,26.33
2019-03-09T08:26:42.889Z,22.47
2019-03-09T08:29:11.220Z,26.90
2019-03-09T08:31:40.540Z,22.67
2019-03-09T08:34:08.572Z,25.33
2019-03-09T08:36:36.673Z,21.73
2019-03-09T08:39:05.279Z,31.70
2019-03-09T08:41:33.311Z,24.37
2019-03-09T08:44:01.568Z,22.50
2019-03-09T08:46:29.679Z,24.23
2019-03-09T08:48:59.924Z,21.40
2019-03-09T08:51:27.618Z,20.07
2019-03-09T08:53:55.656Z,21.53
2019-03-09T08:56:24.325Z,21.20
2019-03-09T08:58:54.410Z,21.27
2019-03-09T09:01:22.425Z,19.73
2019-03-09T09:03:50.547Z,19.60
2019-03-09T09:06:18.646Z,25.17
2019-03-09T09:08:46.696Z,22.97
2019-03-09T09:11:15.862Z,23.37
2019-03-09T09:13:44.364Z,19.37
2019-03-09T09:16:12.400Z,20.77
2019-03-09T09:18:40.434Z,19.47
2019-03-09T09:21:08.704Z,17.43
2019-03-09T09:23:36.757Z,17.50
2019-03-09T09:26:04.811Z,18.80
2019-03-09T09:28:32.907Z,17.03
2019-03-09T09:31:01.029Z,17.73
2019-03-09T09:33:29.333Z,21.50
2019-03-09T09:35:57.880Z,20.10
2019-03-09T09:38:25.962Z,17.23
2019-03-09T09:40:55.042Z,18.63
2019-03-09T09:43:23.286Z,18.57
2019-03-09T09:45:52.423Z,19.83
2019-03-09T09:48:20.485Z,20.90
2019-03-09T09:50:48.800Z,16.50
2019-03-09T09:53:17.139Z,17.00
2019-03-09T09:55:45.197Z,19.70
2019-03-09T09:58:13.671Z,16.53
2019-03-09T10:00:41.674Z,16.57
2019-03-09T10:03:09.732Z,15.63
2019-03-09T10:05:38.935Z,18.87
2019-03-09T10:08:08.443Z,18.23
2019-03-09T10:10:37.703Z,21.43
2019-03-09T10:13:05.927Z,20.83
2019-03-09T10:15:33.993Z,20.43
2019-03-09T10:18:02.036Z,17.33
2019-03-09T10:20:31.936Z,24.93
2019-03-09T10:23:04.111Z,20.57
2019-03-09T10:25:29.725Z,19.63
2019-03-09T10:27:57.918Z,20.17
2019-03-09T10:30:26.028Z,21.90
2019-03-09T10:32:54.616Z,19.57
2019-03-09T10:35:24.744Z,18.53
2019-03-09T10:37:53.013Z,16.53
2019-03-09T10:40:21.095Z,16.17
2019-03-09T10:42:49.352Z,19.30
2019-03-09T10:45:17.530Z,18.13
2019-03-09T10:47:45.603Z,17.73
2019-03-09T10:50:14.280Z,15.00
2019-03-09T10:52:42.395Z,18.27
2019-03-09T10:55:11.669Z,13.47
2019-03-09T10:57:40.044Z,16.83
2019-03-09T11:00:10.750Z,19.37
2019-03-09T11:02:40.585Z,18.27
2019-03-09T11:05:08.916Z,18.20
2019-03-09T11:07:37.002Z,16.43
2019-03-09T11:10:06.591Z,16.97
2019-03-09T11:12:34.871Z,16.27
2019-03-09T11:15:04.320Z,16.43
2019-03-09T11:17:32.368Z,17.03
2019-03-09T11:20:00.512Z,17.90
2019-03-09T11:22:28.558Z,14.07
2019-03-09T11:25:03.339Z,18.03
2019-03-09T11:27:27.518Z,14.57
2019-03-09T11:29:55.594Z,17.33
2019-03-09T11:32:23.676Z,18.17
2019-03-09T11:34:51.912Z,14.57
2019-03-09T11:37:20.015Z,14.00
2019-03-09T11:39:49.577Z,15.33
2019-03-09T11:42:19.693Z,14.33
2019-03-09T11:44:47.901Z,18.70
2019-03-09T11:47:15.999Z,18.93
2019-03-09T11:49:45.943Z,17.67
2019-03-09T11:52:20.036Z,17.47
2019-03-09T11:54:43.744Z,17.90
2019-03-09T11:57:13.628Z,18.00
2019-03-09T11:59:42.845Z,11.77
2019-03-09T12:02:11.122Z,13.77
2019-03-09T12:04:46.617Z,17.77
2019-03-09T12:07:09.182Z,13.87
2019-03-09T12:09:37.275Z,15.47
2019-03-09T12:12:05.702Z,21.40
2019-03-09T12:14:33.805Z,14.80
2019-03-09T12:17:03.345Z,15.00
2019-03-09T12:19:31.630Z,14.83
2019-03-09T12:21:59.696Z,15.63
2019-03-09T12:24:27.853Z,15.43
2019-03-09T12:26:56.160Z,14.20
2019-03-09T12:29:26.013Z,13.30
2019-03-09T12:31:54.541Z,13.93
2019-03-09T12:34:24.605Z,17.90
2019-03-09T12:36:52.706Z,14.97
2019-03-09T12:39:21.849Z,13.47
2019-03-09T12:41:52.439Z,14.70
2019-03-09T12:44:20.366Z,12.93
2019-03-09T12:46:48.428Z,15.03
2019-03-09T12:49:16.536Z,13.20
2019-03-09T12:51:46.400Z,11.80
2019-03-09T12:54:14.535Z,10.87
2019-03-09T12:56:44.012Z,14.50
2019-03-09T12:59:12.109Z,14.30
2019-03-09T13:01:40.168Z,17.67
2019-03-09T13:04:11.445Z,14.73
2019-03-09T13:06:40.539Z,11.67
2019-03-09T13:09:08.698Z,14.97
2019-03-09T13:11:38.124Z,12.97
2019-03-09T13:14:06.242Z,13.40
2019-03-09T13:16:34.407Z,15.03
2019-03-09T13:19:02.753Z,12.60
2019-03-09T13:21:30.841Z,12.83
2019-03-09T13:23:58.893Z,16.43
2019-03-09T13:26:27.202Z,17.93
2019-03-09T13:28:55.259Z,14.60
2019-03-09T13:31:23.316Z,13.87
2019-03-09T13:33:51.423Z,14.30
2019-03-09T13:36:19.468Z,13.53
2019-03-09T13:38:47.517Z,13.33
2019-03-09T13:41:15.745Z,15.90
2019-03-09T13:43:44.106Z,12.23
2019-03-09T13:46:12.150Z,14.53
2019-03-09T13:51:20.339Z,16.53
2019-03-09T13:53:48.376Z,13.67
2019-03-09T13:56:17.448Z,13.50
2019-03-09T13:58:46.641Z,14.10
2019-03-09T14:01:14.816Z,13.80
2019-03-09T14:03:42.984Z,16.67
2019-03-09T14:06:11.365Z,14.43
2019-03-09T14:08:39.434Z,12.10
2019-03-09T14:11:07.511Z,13.60
2019-03-09T14:13:35.896Z,20.30
2019-03-09T14:16:03.960Z,13.47
2019-03-09T14:18:32.019Z,12.40
2019-03-09T14:21:00.130Z,13.20
2019-03-09T14:23:29.970Z,15.87
2019-03-09T14:25:58.119Z,11.53
2019-03-09T14:28:26.210Z,12.33
2019-03-09T14:30:54.847Z,11.88
2019-03-09T14:33:24.192Z,11.00
2019-03-09T14:35:52.451Z,17.10
2019-03-09T14:38:20.501Z,11.80
2019-03-09T14:40:50.009Z,12.17
2019-03-09T14:43:18.217Z,11.13
2019-03-09T14:45:47.001Z,13.47
2019-03-09T14:48:15.102Z,15.70
2019-03-09T14:50:43.208Z,12.77
2019-03-09T14:53:11.266Z,11.53
2019-03-09T14:55:39.348Z,14.20
2019-03-09T14:58:07.617Z,15.47
2019-03-09T15:00:35.744Z,16.53
2019-03-09T15:03:05.609Z,15.00
2019-03-09T15:05:33.744Z,12.87
2019-03-09T15:08:01.820Z,13.50
2019-03-09T15:10:29.869Z,12.33
2019-03-09T15:12:58.104Z,12.57
2019-03-09T15:15:27.623Z,13.53
2019-03-09T15:17:58.804Z,14.90
2019-03-09T15:20:27.042Z,13.20
2019-03-09T15:22:55.111Z,16.10
2019-03-09T15:25:23.199Z,11.23
2019-03-09T15:27:51.569Z,11.43
2019-03-09T15:30:19.833Z,10.60
2019-03-09T15:32:47.882Z,12.73
2019-03-09T15:35:16.013Z,12.30
2019-03-09T15:37:44.052Z,16.87
2019-03-09T15:40:13.592Z,16.37
2019-03-09T15:42:41.872Z,11.90
2019-03-09T15:45:10.482Z,12.10
2019-03-09T15:47:40.128Z,12.97
2019-03-09T15:50:08.971Z,9.07
2019-03-09T15:52:37.078Z,10.57
2019-03-09T15:55:07.282Z,11.60
2019-03-09T15:57:35.659Z,8.83
2019-03-09T16:00:04.792Z,11.07
2019-03-09T16:02:34.223Z,11.73
2019-03-09T16:05:02.666Z,10.77
2019-03-09T16:07:31.863Z,8.57
2019-03-09T16:10:04.007Z,9.53
2019-03-09T16:12:34.812Z,8.13
2019-03-09T16:15:02.838Z,12.27
2019-03-09T16:17:32.521Z,9.97
2019-03-09T16:20:00.820Z,9.63
2019-03-09T16:22:28.890Z,6.17
2019-03-09T16:24:58.552Z,7.53
2019-03-09T16:27:28.842Z,7.00
2019-03-09T16:29:58.588Z,8.10
2019-03-09T16:32:28.448Z,8.73
2019-03-09T16:34:57.900Z,7.53
2019-03-09T16:37:26.135Z,10.10
2019-03-09T16:39:54.377Z,8.50
2019-03-09T16:42:22.585Z,7.97
2019-03-09T16:44:50.718Z,8.20
2019-03-09T16:47:19.840Z,6.37
2019-03-09T16:49:49.715Z,8.03
2019-03-09T16:52:19.743Z,6.53
2019-03-09T16:54:49.979Z,9.40
2019-03-09T16:57:18.080Z,6.53
2019-03-09T16:59:46.403Z,7.03
2019-03-09T17:02:15.585Z,8.87
2019-03-09T17:04:45.736Z,8.00
2019-03-09T17:07:14.329Z,6.60
2019-03-09T17:09:42.553Z,7.33
2019-03-09T17:12:10.886Z,7.07
2019-03-09T17:14:39.207Z,5.73
2019-03-09T17:17:30.779Z,7.53
2019-03-09T17:20:00.480Z,7.33
2019-03-09T17:22:34.352Z,8.17
2019-03-09T17:25:02.559Z,6.30
2019-03-09T17:27:30.715Z,9.40
2019-03-09T17:29:58.876Z,7.83
2019-03-09T17:32:28.384Z,9.43
2019-03-09T17:35:00.360Z,8.37
2019-03-09T17:37:26.766Z,6.17
2019-03-09T17:39:55.452Z,7.50
2019-03-09T17:42:32.702Z,8.27
2019-03-09T17:45:01.109Z,7.03
2019-03-09T17:47:31.209Z,7.13
2019-03-09T17:49:58.909Z,5.27
2019-03-09T17:52:27.326Z,7.70
2019-03-09T17:54:55.369Z,5.80
2019-03-09T17:57:23.432Z,4.37
2019-03-09T17:59:51.523Z,3.20
2019-03-09T18:02:19.575Z,5.37
2019-03-09T18:04:47.664Z,2.27
2019-03-09T18:07:15.948Z,2.60
2019-03-09T18:09:44.044Z,3.30
2019-03-09T18:12:12.108Z,3.37
2019-03-09T18:14:40.199Z,3.57
2019-03-09T18:17:08.258Z,4.90
2019-03-09T18:19:36.304Z,2.60
2019-03-09T18:22:04.393Z,4.90
2019-03-09T18:24:32.442Z,3.07
2019-03-09T18:27:00.465Z,2.67
2019-03-09T18:29:29.956Z,3.53
2019-03-09T18:31:58.118Z,2.83
2019-03-09T18:34:26.169Z,2.73
2019-03-09T18:36:54.265Z,2.80
2019-03-09T18:39:22.287Z,2.97
2019-03-09T18:41:50.327Z,2.53
2019-03-09T18:44:18.536Z,3.87
2019-03-09T18:46:46.597Z,4.20
2019-03-09T18:49:14.628Z,4.53
2019-03-09T18:51:42.853Z,3.63
2019-03-09T18:54:11.751Z,6.63
2019-03-09T18:56:39.825Z,3.93
2019-03-09T18:59:08.018Z,3.13
2019-03-09T19:01:36.096Z,8.33
2019-03-09T19:04:04.131Z,7.57
2019-03-09T19:06:32.444Z,6.97
2019-03-09T19:09:00.493Z,6.20
2019-03-09T19:11:28.596Z,7.97
2019-03-09T19:13:57.888Z,8.83
2019-03-09T19:16:25.949Z,12.13
2019-03-09T19:18:53.987Z,9.40
2019-03-09T19:21:22.098Z,10.23
2019-03-09T19:23:50.140Z,10.90
2019-03-09T19:26:19.980Z,11.13
2019-03-09T19:28:49.688Z,7.70
2019-03-09T19:31:18.824Z,10.27
2019-03-09T19:33:46.889Z,10.30
2019-03-09T19:36:15.076Z,8.77
2019-03-09T19:38:43.148Z,13.50
2019-03-09T19:41:13.432Z,7.30
2019-03-09T19:43:41.515Z,13.53
2019-03-09T19:46:10.658Z,10.97
2019-03-09T19:48:38.708Z,12.90
2019-03-09T19:51:08.639Z,12.10
2019-03-09T19:53:36.693Z,12.97
2019-03-09T19:56:05.000Z,13.10
2019-03-09T19:58:33.101Z,13.83
2019-03-09T20:01:01.154Z,17.97
2019-03-09T20:03:29.183Z,14.27
2019-03-09T20:05:57.284Z,12.80
2019-03-09T20:08:25.402Z,10.87
2019-03-09T20:10:53.460Z,16.20
2019-03-09T20:13:21.851Z,16.17
2019-03-09T20:15:49.893Z,14.90
2019-03-09T20:18:17.932Z,17.73
2019-03-09T20:20:46.630Z,14.13
2019-03-09T20:23:15.864Z,14.90
2019-03-09T20:25:43.902Z,14.63
2019-03-09T20:28:11.990Z,18.97
2019-03-09T20:30:40.029Z,19.57
2019-03-09T20:33:09.555Z,14.87
2019-03-09T20:35:38.018Z,19.90
2019-03-09T20:38:06.072Z,18.33
2019-03-09T20:40:34.302Z,14.57
2019-03-09T20:43:02.395Z,16.93
2019-03-09T20:45:30.452Z,15.33
2019-03-09T20:47:58.503Z,17.97
2019-03-09T20:50:26.644Z,15.70
2019-03-09T20:52:55.481Z,17.57
2019-03-09T20:55:23.513Z,15.87
2019-03-09T20:57:53.259Z,18.20
2019-03-09T21:00:21.677Z,16.47
2019-03-09T21:02:49.659Z,17.57
2019-03-09T21:05:17.772Z,14.83
2019-03-09T21:07:45.827Z,14.93
2019-03-09T21:10:14.507Z,20.87
2019-03-09T21:12:59.341Z,20.00
2019-03-09T21:15:27.447Z,19.23
2019-03-09T21:17:55.518Z,13.77
2019-03-09T21:20:23.964Z,13.90
2019-03-09T21:22:52.013Z,14.60
2019-03-09T21:25:20.067Z,22.40
2019-03-09T21:27:49.838Z,18.07
2019-03-09T21:30:17.885Z,20.90
2019-03-09T21:32:45.956Z,15.20
2019-03-09T21:35:14.367Z,18.60
2019-03-09T21:37:42.453Z,13.70
2019-03-09T21:40:11.976Z,15.50
2019-03-09T21:42:40.230Z,12.20
2019-03-09T21:45:08.389Z,14.37
2019-03-09T21:47:36.448Z,17.03
2019-03-09T21:50:05.206Z,17.10
2019-03-09T21:52:34.724Z,13.47
2019-03-09T21:55:02.867Z,15.57
2019-03-09T21:57:31.142Z,17.23
2019-03-09T21:59:59.224Z,16.90
2019-03-09T22:02:28.823Z,15.90
2019-03-09T22:04:58.240Z,18.33
2019-03-09T22:07:26.307Z,17.07
2019-03-09T22:09:54.543Z,16.47
2019-03-09T22:12:22.708Z,13.03
2019-03-09T22:14:53.098Z,15.07
2019-03-09T22:17:21.302Z,11.63
2019-03-09T22:19:49.753Z,13.00
2019-03-09T22:22:17.808Z,17.43
2019-03-09T22:24:45.851Z,14.80
2019-03-09T22:27:14.392Z,15.80
2019-03-09T22:29:42.440Z,14.43
2019-03-09T22:32:10.493Z,14.97
2019-03-09T22:34:38.560Z,13.53
2019-03-09T22:37:06.616Z,15.10
2019-03-09T22:39:34.689Z,11.00
2019-03-09T22:42:03.897Z,14.63
2019-03-09T22:44:31.930Z,12.90
2019-03-09T22:46:59.988Z,12.83
2019-03-09T22:49:31.052Z,15.43
2019-03-09T22:51:59.092Z,16.50
2019-03-09T22:54:28.958Z,15.83
2019-03-09T22:56:57.141Z,13.53
2019-03-09T22:59:25.604Z,15.37
2019-03-09T23:01:53.666Z,15.27
2019-03-09T23:04:22.360Z,11.03
2019-03-09T23:06:50.407Z,15.10
2019-03-09T23:09:18.504Z,17.30
2019-03-09T23:11:47.884Z,13.70
2019-03-09T23:14:17.740Z,12.73
2019-03-09T23:16:46.919Z,16.87
2019-03-09T23:19:15.094Z,15.67
2019-03-09T23:21:43.137Z,15.50
2019-03-09T23:24:11.217Z,17.67
2019-03-09T23:26:39.477Z,10.40
2019-03-09T23:29:07.538Z,15.80
2019-03-09T23:31:35.712Z,10.77
2019-03-09T23:34:04.089Z,11.00
2019-03-09T23:36:32.210Z,12.37
2019-03-09T23:39:00.374Z,10.30
2019-03-09T23:41:28.550Z,15.17
2019-03-09T23:43:56.619Z,16.93
2019-03-09T23:46:24.716Z,16.63
2019-03-09T23:48:54.339Z,13.33
2019-03-09T23:51:22.385Z,15.37
2019-03-09T23:53:50.464Z,15.90
2019-03-09T23:56:18.603Z,14.43
2019-03-09T23:58:46.616Z,17.80
